createdAt,value
2019-05-28T00:00:55.613Z,23.29
2019-05-28T00:03:29.519Z,22.05
2019-05-28T00:06:02.200Z,21.18
2019-05-28T00:08:34.879Z,20.56
2019-05-28T00:11:07.457Z,20.05
2019-05-28T00:13:40.242Z,19.64
2019-05-28T00:16:12.687Z,19.32
2019-05-28T00:18:44.952Z,18.99
2019-05-28T00:21:17.562Z,20.61
2019-05-28T00:23:51.272Z,23.28
2019-05-28T00:26:23.999Z,23.14
2019-05-28T00:28:56.619Z,21.92
2019-05-28T00:31:29.302Z,21.04
2019-05-28T00:34:01.992Z,20.41
2019-05-28T00:36:34.656Z,19.93
2019-05-28T00:39:09.290Z,19.51
2019-05-28T00:41:41.979Z,19.21
2019-05-28T00:44:15.664Z,18.84
2019-05-28T00:46:48.395Z,20.59
2019-05-28T00:49:21.031Z,23.33
2019-05-28T00:51:53.815Z,23.11
2019-05-28T00:54:26.494Z,21.92
2019-05-28T00:56:59.994Z,21.02
2019-05-28T00:59:33.786Z,20.40
2019-05-28T01:02:06.771Z,19.91
2019-05-28T01:04:40.475Z,19.51
2019-05-28T01:07:14.291Z,19.18
2019-05-28T01:09:46.960Z,20.97
2019-05-28T01:12:19.649Z,23.63
2019-05-28T01:14:52.422Z,23.39
2019-05-28T01:17:26.448Z,22.17
2019-05-28T01:19:59.022Z,21.21
2019-05-28T01:22:31.696Z,20.56
2019-05-28T01:25:06.531Z,20.05
2019-05-28T01:27:40.263Z,19.60
2019-05-28T01:30:13.212Z,21.09
2019-05-28T01:32:47.870Z,23.68
2019-05-28T01:35:20.216Z,23.38
2019-05-28T01:37:53.100Z,22.11
2019-05-28T01:40:25.797Z,21.21
2019-05-28T01:42:59.066Z,20.52
2019-05-28T01:45:31.767Z,19.99
2019-05-28T01:48:05.166Z,19.56
2019-05-28T01:50:37.838Z,21.31
2019-05-28T01:53:10.141Z,23.87
2019-05-28T01:55:42.783Z,23.61
2019-05-28T01:58:15.451Z,22.28
2019-05-28T02:00:48.588Z,21.34
2019-05-28T02:03:21.227Z,20.62
2019-05-28T02:05:53.904Z,20.08
2019-05-28T02:08:26.572Z,21.65
2019-05-28T02:10:59.257Z,24.16
2019-05-28T02:13:32.138Z,23.81
2019-05-28T02:16:04.820Z,22.51
2019-05-28T02:18:37.127Z,21.58
2019-05-28T02:21:09.369Z,20.83
2019-05-28T02:23:42.038Z,20.30
2019-05-28T02:26:14.717Z,21.86
2019-05-28T02:28:47.396Z,24.39
2019-05-28T02:31:27.782Z,23.79
2019-05-28T02:33:54.351Z,22.52
2019-05-28T02:36:27.072Z,21.58
2019-05-28T02:38:59.806Z,20.90
2019-05-28T02:41:32.427Z,20.36
2019-05-28T02:44:05.673Z,22.01
2019-05-28T02:46:37.895Z,24.53
2019-05-28T02:49:10.572Z,24.16
2019-05-28T02:51:44.593Z,22.84
2019-05-28T02:54:17.367Z,21.89
2019-05-28T02:56:51.672Z,21.17
2019-05-28T02:59:26.107Z,20.61
2019-05-28T03:02:00.314Z,22.24
2019-05-28T03:04:33.472Z,24.72
2019-05-28T03:07:06.489Z,24.35
2019-05-28T03:09:41.630Z,23.02
2019-05-28T03:12:14.306Z,22.04
2019-05-28T03:14:47.036Z,21.33
2019-05-28T03:17:21.196Z,20.76
2019-05-28T03:19:54.597Z,22.32
2019-05-28T03:22:27.578Z,24.82
2019-05-28T03:25:01.487Z,24.23
2019-05-28T03:27:34.583Z,22.93
2019-05-28T03:30:11.020Z,21.99
2019-05-28T03:32:43.628Z,21.30
2019-05-28T03:35:16.403Z,20.74
2019-05-28T03:37:49.083Z,22.39
2019-05-28T03:40:43.064Z,24.91
2019-05-28T03:43:17.690Z,24.36
2019-05-28T03:45:50.698Z,23.08
2019-05-28T03:48:23.354Z,22.17
2019-05-28T03:50:56.341Z,21.48
2019-05-28T03:53:29.020Z,20.95
2019-05-28T03:56:01.732Z,22.64
2019-05-28T03:58:34.378Z,25.12
2019-05-28T04:01:07.161Z,24.72
2019-05-28T04:03:39.843Z,23.40
2019-05-28T04:06:12.525Z,22.43
2019-05-28T04:08:45.089Z,21.73
2019-05-28T04:11:17.775Z,21.18
2019-05-28T04:13:50.412Z,22.79
2019-05-28T04:16:23.132Z,25.24
2019-05-28T04:18:55.812Z,24.74
2019-05-28T04:21:28.496Z,23.46
2019-05-28T04:24:01.170Z,22.47
2019-05-28T04:26:34.167Z,21.74
2019-05-28T04:29:06.501Z,21.17
2019-05-28T04:31:39.216Z,22.80
2019-05-28T04:34:12.190Z,25.23
2019-05-28T04:36:44.474Z,24.63
2019-05-28T04:39:17.073Z,23.35
2019-05-28T04:41:49.720Z,22.42
2019-05-28T04:44:22.394Z,21.72
2019-05-28T04:46:55.086Z,21.20
2019-05-28T04:49:27.763Z,22.86
2019-05-28T04:52:00.471Z,25.30
2019-05-28T04:54:33.121Z,24.94
2019-05-28T04:57:05.801Z,23.65
2019-05-28T04:59:38.464Z,22.69
2019-05-28T05:02:11.359Z,21.99
2019-05-28T05:04:45.075Z,21.44
2019-05-28T05:07:17.751Z,23.06
2019-05-28T05:09:49.991Z,25.51
2019-05-28T05:12:22.570Z,24.86
2019-05-28T05:14:55.274Z,23.58
2019-05-28T05:17:27.968Z,22.70
2019-05-28T05:20:00.626Z,22.05
2019-05-28T05:22:33.298Z,21.55
2019-05-28T05:25:08.331Z,23.26
2019-05-28T05:27:42.358Z,25.60
2019-05-28T05:30:16.260Z,24.70
2019-05-28T05:32:51.198Z,23.50
2019-05-28T05:35:23.909Z,22.64
2019-05-28T05:37:56.650Z,22.03
2019-05-28T05:40:29.434Z,21.54
2019-05-28T05:43:02.305Z,23.39
2019-05-28T05:45:35.297Z,25.82
2019-05-28T05:48:09.155Z,25.10
2019-05-28T05:50:45.066Z,23.91
2019-05-28T05:53:16.517Z,23.04
2019-05-28T05:55:49.194Z,22.43
2019-05-28T05:58:21.469Z,22.08
2019-05-28T06:00:54.191Z,24.36
2019-05-28T06:03:39.834Z,26.09
2019-05-28T06:06:02.884Z,25.03
2019-05-28T06:08:37.178Z,23.99
2019-05-28T06:11:09.972Z,23.23
2019-05-28T06:13:42.647Z,22.73
2019-05-28T06:16:15.340Z,22.28
2019-05-28T06:18:47.619Z,24.33
2019-05-28T06:21:20.480Z,25.58
2019-05-28T06:23:53.181Z,24.56
2019-05-28T06:26:25.418Z,23.67
2019-05-28T06:28:58.114Z,23.01
2019-05-28T06:31:30.817Z,22.51
2019-05-28T06:34:03.486Z,24.06
2019-05-28T06:36:35.730Z,26.28
2019-05-28T06:39:09.518Z,25.56
2019-05-28T06:41:42.125Z,24.43
2019-05-28T06:44:14.806Z,23.64
2019-05-28T06:46:47.475Z,23.04
2019-05-28T06:49:20.258Z,22.59
2019-05-28T06:51:52.946Z,22.20
2019-05-28T06:54:25.650Z,23.91
2019-05-28T06:56:57.857Z,26.27
2019-05-28T06:59:30.468Z,25.47
2019-05-28T07:02:03.259Z,24.35
2019-05-28T07:04:35.930Z,23.49
2019-05-28T07:07:08.601Z,22.90
2019-05-28T07:09:42.315Z,22.39
2019-05-28T07:12:17.886Z,22.01
2019-05-28T07:14:49.531Z,23.73
2019-05-28T07:17:22.496Z,26.00
2019-05-28T07:19:55.190Z,25.20
2019-05-28T07:22:27.864Z,23.99
2019-05-28T07:25:00.547Z,23.10
2019-05-28T07:27:33.217Z,22.40
2019-05-28T07:30:08.866Z,21.89
2019-05-28T07:32:41.451Z,21.70
2019-05-28T07:35:14.733Z,24.11
2019-05-28T07:37:47.424Z,24.47
2019-05-28T07:40:31.282Z,23.50
2019-05-28T07:42:55.133Z,22.73
2019-05-28T07:45:27.817Z,22.18
2019-05-28T07:48:00.602Z,22.93
2019-05-28T07:50:33.264Z,25.40
2019-05-28T07:53:05.964Z,24.79
2019-05-28T07:55:38.636Z,23.73
2019-05-28T07:58:11.319Z,22.97
2019-05-28T08:00:45.112Z,22.36
2019-05-28T08:03:17.806Z,21.86
2019-05-28T08:05:50.479Z,23.15
2019-05-28T08:08:25.307Z,24.85
2019-05-28T08:10:57.972Z,23.92
2019-05-28T08:13:40.096Z,23.01
2019-05-28T08:16:18.191Z,22.28
2019-05-28T08:18:40.522Z,21.74
2019-05-28T08:21:13.205Z,23.29
2019-05-28T08:23:45.986Z,25.36
2019-05-28T08:26:18.665Z,24.44
2019-05-28T08:28:51.373Z,23.29
2019-05-28T08:31:24.126Z,22.46
2019-05-28T08:33:57.006Z,21.87
2019-05-28T08:36:29.891Z,22.36
2019-05-28T08:39:02.465Z,24.97
2019-05-28T08:41:37.588Z,24.77
2019-05-28T08:44:10.184Z,23.60
2019-05-28T08:46:42.851Z,22.79
2019-05-28T08:49:15.547Z,22.17
2019-05-28T08:51:48.526Z,21.68
2019-05-28T08:54:21.216Z,21.27
2019-05-28T08:56:53.505Z,23.04
2019-05-28T08:59:26.203Z,25.50
2019-05-28T09:01:58.934Z,25.15
2019-05-28T09:04:31.784Z,23.92
2019-05-28T09:07:05.625Z,23.04
2019-05-28T09:09:38.297Z,22.43
2019-05-28T09:12:10.989Z,21.94
2019-05-28T09:14:55.988Z,21.58
2019-05-28T09:17:18.084Z,23.39
2019-05-28T09:19:50.770Z,25.48
2019-05-28T09:22:26.224Z,24.58
2019-05-28T09:24:57.356Z,23.58
2019-05-28T09:27:31.164Z,22.86
2019-05-28T09:30:04.249Z,22.40
2019-05-28T09:32:36.534Z,22.01
2019-05-28T09:35:11.349Z,21.89
2019-05-28T09:37:43.930Z,24.42
2019-05-28T09:40:16.913Z,24.95
2019-05-28T09:42:50.004Z,23.95
2019-05-28T09:45:23.524Z,23.15
2019-05-28T09:47:56.388Z,22.60
2019-05-28T09:50:30.882Z,22.10
2019-05-28T09:53:03.071Z,21.73
2019-05-28T09:55:36.064Z,23.40
2019-05-28T09:58:16.892Z,25.97
2019-05-28T10:00:58.027Z,25.51
2019-05-28T10:03:24.953Z,24.32
2019-05-28T10:06:15.076Z,23.50
2019-05-28T10:08:32.263Z,22.91
2019-05-28T10:11:04.932Z,22.46
2019-05-28T10:13:39.861Z,22.11
2019-05-28T10:16:11.460Z,21.74
2019-05-28T10:18:43.997Z,23.61
2019-05-28T10:21:18.668Z,25.99
2019-05-28T10:23:50.893Z,25.20
2019-05-28T10:26:23.151Z,24.04
2019-05-28T10:28:56.044Z,23.18
2019-05-28T10:31:28.723Z,22.62
2019-05-28T10:34:01.438Z,22.18
2019-05-28T10:36:36.444Z,21.93
2019-05-28T10:39:10.245Z,24.27
2019-05-28T10:41:42.921Z,24.56
2019-05-28T10:44:15.498Z,23.53
2019-05-28T10:46:49.202Z,22.73
2019-05-28T10:49:22.089Z,22.17
2019-05-28T10:51:55.178Z,22.49
2019-05-28T10:54:27.421Z,25.19
2019-05-28T10:57:00.553Z,25.10
2019-05-28T10:59:32.774Z,23.95
2019-05-28T11:02:05.481Z,23.12
2019-05-28T11:04:38.182Z,22.49
2019-05-28T11:07:19.237Z,21.96
2019-05-28T11:09:51.702Z,22.20
2019-05-28T11:12:25.734Z,24.92
2019-05-28T11:14:58.403Z,24.86
2019-05-28T11:17:31.077Z,23.77
2019-05-28T11:20:04.793Z,22.87
2019-05-28T11:22:37.462Z,22.31
2019-05-28T11:25:11.485Z,21.89
2019-05-28T11:27:44.151Z,21.48
2019-05-28T11:30:19.306Z,23.01
2019-05-28T11:32:52.168Z,25.36
2019-05-28T11:35:25.566Z,24.58
2019-05-28T11:37:57.808Z,23.64
2019-05-28T11:40:30.316Z,22.94
2019-05-28T11:43:03.499Z,22.38
2019-05-28T11:45:36.496Z,21.97
2019-05-28T11:48:09.615Z,21.74
2019-05-28T11:50:42.356Z,23.77
2019-05-28T11:53:15.049Z,23.57
2019-05-28T11:55:47.926Z,22.80
2019-05-28T11:58:20.619Z,22.22
2019-05-28T12:00:53.177Z,21.77
2019-05-28T12:03:26.164Z,21.34
2019-05-28T12:05:59.099Z,21.02
2019-05-28T12:08:31.723Z,21.00
2019-05-28T12:11:04.304Z,23.63
2019-05-28T12:13:36.910Z,23.91
2019-05-28T12:16:09.241Z,22.95
2019-05-28T12:18:41.932Z,22.21
2019-05-28T12:21:14.509Z,21.66
2019-05-28T12:23:47.290Z,21.27
2019-05-28T12:26:21.406Z,20.97
2019-05-28T12:28:53.990Z,20.71
2019-05-28T12:31:26.389Z,20.43
2019-05-28T12:33:59.062Z,22.01
2019-05-28T12:36:31.920Z,23.46
2019-05-28T12:39:06.436Z,22.60
2019-05-28T12:41:39.121Z,21.84
2019-05-28T12:44:12.049Z,21.30
2019-05-28T12:46:44.586Z,20.90
2019-05-28T12:49:17.260Z,20.58
2019-05-28T12:51:49.837Z,21.07
2019-05-28T12:54:22.848Z,23.64
2019-05-28T12:56:55.498Z,23.23
2019-05-28T12:59:27.769Z,22.28
2019-05-28T13:02:00.344Z,21.61
2019-05-28T13:04:33.023Z,21.14
2019-05-28T13:07:05.753Z,20.78
2019-05-28T13:09:38.444Z,20.43
2019-05-28T13:12:11.061Z,20.43
2019-05-28T13:14:43.742Z,23.04
2019-05-28T13:17:16.315Z,23.42
2019-05-28T13:19:49.008Z,22.45
2019-05-28T13:22:21.576Z,21.74
2019-05-28T13:24:53.923Z,21.24
2019-05-28T13:27:26.620Z,20.92
2019-05-28T13:29:58.868Z,20.59
2019-05-28T13:32:31.472Z,20.31
2019-05-28T13:35:04.974Z,21.83
2019-05-28T13:37:37.555Z,22.10
2019-05-28T13:40:12.955Z,21.33
2019-05-28T13:42:45.670Z,20.71
2019-05-28T13:45:19.320Z,20.24
2019-05-28T13:47:51.959Z,21.38
2019-05-28T13:50:25.040Z,22.63
2019-05-28T13:52:58.943Z,21.77
2019-05-28T13:55:31.724Z,21.04
2019-05-28T13:58:04.322Z,20.55
2019-05-28T14:00:37.194Z,20.15
2019-05-28T14:03:10.410Z,21.61
2019-05-28T14:05:43.464Z,22.74
2019-05-28T14:08:15.673Z,21.81
2019-05-28T14:10:48.310Z,21.09
2019-05-28T14:13:20.890Z,20.56
2019-05-28T14:15:53.568Z,20.17
2019-05-28T14:18:27.067Z,19.92
2019-05-28T14:20:59.743Z,21.31
2019-05-28T14:23:32.696Z,22.45
2019-05-28T14:26:05.791Z,21.72
2019-05-28T14:28:38.395Z,21.03
2019-05-28T14:31:10.972Z,20.58
2019-05-28T14:33:43.651Z,20.21
2019-05-28T14:36:16.437Z,19.91
2019-05-28T14:39:02.426Z,19.61
2019-05-28T14:41:23.331Z,19.91
2019-05-28T14:43:56.008Z,22.47
2019-05-28T14:46:28.582Z,22.13
2019-05-28T14:49:01.264Z,21.31
2019-05-28T14:51:34.970Z,20.68
2019-05-28T14:54:07.598Z,20.21
2019-05-28T14:56:40.230Z,19.82
2019-05-28T14:59:12.906Z,19.54
2019-05-28T15:01:45.122Z,19.51
2019-05-28T15:04:18.857Z,22.00
2019-05-28T15:06:51.451Z,21.76
2019-05-28T15:09:24.133Z,20.89
2019-05-28T15:11:56.350Z,20.27
2019-05-28T15:14:29.077Z,19.77
2019-05-28T15:17:01.999Z,19.42
2019-05-28T15:19:34.855Z,20.75
2019-05-28T15:22:07.462Z,22.49
2019-05-28T15:24:40.716Z,21.55
2019-05-28T15:27:13.295Z,20.72
2019-05-28T15:29:45.992Z,20.09
2019-05-28T15:32:18.555Z,19.62
2019-05-28T15:34:50.795Z,19.69
2019-05-28T15:37:23.397Z,22.35
2019-05-28T15:39:55.650Z,22.49
2019-05-28T15:42:28.243Z,21.35
2019-05-28T15:45:00.928Z,20.56
2019-05-28T15:47:33.869Z,19.95
2019-05-28T15:50:08.946Z,19.50
2019-05-28T15:52:41.521Z,20.28
2019-05-28T15:55:14.814Z,21.72
2019-05-28T15:57:47.388Z,20.78
2019-05-28T16:00:24.644Z,20.05
2019-05-28T16:02:58.051Z,19.44
2019-05-28T16:05:30.754Z,18.99
2019-05-28T16:08:03.330Z,20.93
2019-05-28T16:10:36.025Z,21.59
2019-05-28T16:13:08.585Z,20.63
2019-05-28T16:15:41.368Z,19.84
2019-05-28T16:18:13.957Z,19.30
2019-05-28T16:20:46.938Z,19.64
2019-05-28T16:23:19.504Z,21.80
2019-05-28T16:25:52.593Z,21.00
2019-05-28T16:28:26.198Z,20.12
2019-05-28T16:31:11.717Z,19.44
2019-05-28T16:33:33.204Z,19.29
2019-05-28T16:36:05.973Z,21.81
2019-05-28T16:38:38.862Z,21.92
2019-05-28T16:41:11.535Z,20.83
2019-05-28T16:43:44.113Z,20.01
2019-05-28T16:46:16.695Z,19.33
2019-05-28T16:48:48.934Z,19.12
2019-05-28T16:51:21.537Z,21.61
2019-05-28T16:53:54.115Z,21.63
2019-05-28T16:56:26.795Z,20.55
2019-05-28T16:58:59.367Z,19.71
2019-05-28T17:01:32.054Z,19.06
2019-05-28T17:04:04.623Z,18.53
2019-05-28T17:06:38.394Z,20.02
2019-05-28T17:09:10.701Z,22.34
2019-05-28T17:11:43.384Z,21.30
2019-05-28T17:14:15.954Z,20.17
2019-05-28T17:16:49.067Z,19.39
2019-05-28T17:19:21.621Z,18.70
2019-05-28T17:21:54.309Z,18.90
2019-05-28T17:24:26.882Z,21.62
2019-05-28T17:27:00.581Z,21.63
2019-05-28T17:29:32.792Z,20.45
2019-05-28T17:32:05.430Z,19.54
2019-05-28T17:34:38.772Z,18.84
2019-05-28T17:37:12.655Z,18.45
2019-05-28T17:39:45.263Z,20.90
2019-05-28T17:42:17.887Z,21.15
2019-05-28T17:44:50.521Z,20.01
2019-05-28T17:47:23.045Z,19.15
2019-05-28T17:49:55.616Z,18.46
2019-05-28T17:52:28.295Z,20.43
2019-05-28T17:55:00.972Z,21.27
2019-05-28T17:57:33.663Z,20.08
2019-05-28T18:00:07.866Z,19.18
2019-05-28T18:02:43.784Z,18.45
2019-05-28T18:05:20.434Z,20.02
2019-05-28T18:07:54.489Z,21.90
2019-05-28T18:10:29.799Z,20.71
2019-05-28T18:13:06.240Z,19.61
2019-05-28T18:15:47.602Z,18.76
2019-05-28T18:18:16.931Z,18.22
2019-05-28T18:20:50.197Z,20.28
2019-05-28T18:23:22.976Z,21.37
2019-05-28T18:25:56.474Z,20.16
2019-05-28T18:28:31.063Z,19.22
2019-05-28T18:31:05.460Z,18.45
2019-05-28T18:33:42.829Z,20.02
2019-05-28T18:36:18.741Z,21.90
2019-05-28T18:38:52.466Z,20.76
2019-05-28T18:41:27.650Z,19.62
2019-05-28T18:44:08.064Z,18.78
2019-05-28T18:46:44.808Z,18.48
2019-05-28T18:49:20.594Z,21.06
2019-05-28T18:51:54.802Z,21.24
2019-05-28T18:54:30.225Z,20.02
2019-05-28T18:57:02.821Z,19.08
2019-05-28T18:59:36.204Z,18.35
2019-05-28T19:02:10.288Z,18.00
2019-05-28T19:04:46.990Z,20.55
2019-05-28T19:07:20.610Z,20.79
2019-05-28T19:09:54.944Z,19.56
2019-05-28T19:12:30.804Z,18.60
2019-05-28T19:15:08.278Z,17.93
2019-05-28T19:17:41.128Z,20.05
2019-05-28T19:20:20.624Z,20.76
2019-05-28T19:22:55.553Z,19.47
2019-05-28T19:25:29.399Z,18.48
2019-05-28T19:28:03.242Z,17.77
2019-05-28T19:30:39.068Z,18.45
2019-05-28T19:33:11.773Z,21.22
2019-05-28T19:35:46.340Z,20.82
2019-05-28T19:38:20.306Z,19.54
2019-05-28T19:40:52.993Z,18.55
2019-05-28T19:43:25.573Z,17.84
2019-05-28T19:45:58.740Z,17.37
2019-05-28T19:48:32.093Z,19.67
2019-05-28T19:51:04.960Z,21.41
2019-05-28T19:53:37.514Z,20.26
2019-05-28T19:56:10.203Z,19.12
2019-05-28T19:58:42.431Z,18.21
2019-05-28T20:01:15.135Z,17.59
2019-05-28T20:03:47.811Z,19.02
2019-05-28T20:06:20.551Z,21.00
2019-05-28T20:08:53.167Z,19.91
2019-05-28T20:11:25.858Z,18.77
2019-05-28T20:13:58.430Z,17.94
2019-05-28T20:16:31.123Z,17.32
2019-05-28T20:19:04.003Z,18.84
2019-05-28T20:21:36.665Z,19.89
2019-05-28T20:24:08.887Z,18.78
2019-05-28T20:26:41.512Z,17.91
2019-05-28T20:29:14.094Z,17.27
2019-05-28T20:31:46.770Z,19.12
2019-05-28T20:34:19.450Z,21.10
2019-05-28T20:36:52.128Z,19.98
2019-05-28T20:39:24.718Z,18.70
2019-05-28T20:41:57.385Z,17.82
2019-05-28T20:44:30.267Z,17.20
2019-05-28T20:47:04.971Z,19.06
2019-05-28T20:49:37.982Z,21.51
2019-05-28T20:52:10.441Z,20.63
2019-05-28T20:54:43.035Z,19.32
2019-05-28T20:57:15.712Z,18.31
2019-05-28T20:59:49.409Z,17.59
2019-05-28T21:02:22.298Z,17.21
2019-05-28T21:04:54.879Z,19.61
2019-05-28T21:07:27.861Z,20.55
2019-05-28T21:10:00.437Z,19.33
2019-05-28T21:12:43.370Z,18.22
2019-05-28T21:15:10.129Z,17.45
2019-05-28T21:17:42.778Z,17.94
2019-05-28T21:20:15.966Z,20.55
2019-05-28T21:22:49.775Z,19.92
2019-05-28T21:25:22.351Z,18.66
2019-05-28T21:27:56.453Z,17.77
2019-05-28T21:30:29.453Z,17.06
2019-05-28T21:33:02.133Z,18.26
2019-05-28T21:35:34.820Z,19.93
2019-05-28T21:38:07.485Z,18.76
2019-05-28T21:40:40.063Z,17.73
2019-05-28T21:43:12.743Z,16.99
2019-05-28T21:45:45.319Z,17.42
2019-05-28T21:48:17.997Z,20.12
2019-05-28T21:50:50.676Z,19.96
2019-05-28T21:53:22.935Z,18.60
2019-05-28T21:55:55.368Z,17.55
2019-05-28T21:58:27.997Z,17.11
2019-05-28T22:01:05.290Z,19.54
2019-05-28T22:03:39.088Z,19.56
2019-05-28T22:06:11.309Z,18.31
2019-05-28T22:08:43.937Z,17.41
2019-05-28T22:11:16.511Z,16.99
2019-05-28T22:13:49.196Z,19.44
2019-05-28T22:16:22.080Z,19.43
2019-05-28T22:18:56.100Z,18.18
2019-05-28T22:21:28.593Z,17.30
2019-05-28T22:24:02.559Z,16.69
2019-05-28T22:26:35.456Z,18.99
2019-05-28T22:29:08.656Z,19.29
2019-05-28T22:31:41.327Z,18.00
2019-05-28T22:34:14.006Z,17.10
2019-05-28T22:36:46.237Z,16.99
2019-05-28T22:39:18.853Z,19.61
2019-05-28T22:41:51.738Z,19.13
2019-05-28T22:44:24.424Z,17.90
2019-05-28T22:46:57.404Z,17.02
2019-05-28T22:49:30.079Z,16.36
2019-05-28T22:52:03.905Z,17.70
2019-05-28T22:54:36.772Z,19.15
2019-05-28T22:57:09.657Z,18.07
2019-05-28T22:59:42.639Z,17.02
2019-05-28T23:02:15.533Z,16.29
2019-05-28T23:04:48.302Z,16.54
2019-05-28T23:07:21.088Z,19.29
2019-05-28T23:09:53.973Z,19.25
2019-05-28T23:12:26.651Z,17.87
2019-05-28T23:14:59.798Z,16.92
2019-05-28T23:17:32.442Z,16.33
2019-05-28T23:20:12.983Z,18.62
2019-05-28T23:22:45.868Z,18.85
2019-05-28T23:25:18.548Z,17.65
2019-05-28T23:27:51.529Z,16.73
2019-05-28T23:30:25.410Z,16.11
2019-05-28T23:32:58.216Z,18.22
2019-05-28T23:35:30.904Z,19.23
2019-05-28T23:38:04.853Z,17.93
2019-05-28T23:40:37.551Z,16.89
2019-05-28T23:43:10.165Z,16.12
2019-05-28T23:45:43.070Z,15.56
2019-05-28T23:48:18.306Z,17.55
2019-05-28T23:50:50.046Z,18.48
2019-05-28T23:53:22.621Z,17.24
2019-05-28T23:55:55.303Z,16.27
2019-05-28T23:58:27.878Z,15.57
